Time;durP1;ratioP1;P1;durP2;ratioP2;P2;SDS_P1;SDS_P2;PMS_P1;PMS_P2;Temp;Humidity;BMP_temperature;BMP_pressure;BME280_temperature;BME280_humidity;BME280_pressure;Samples;Min_cycle;Max_cycle;Signal;HPM_P1;HPM_P2
2022/07/23 00:01:34;;;;;;;0.10;0.10;;;15.00;99.90;;;;;;5055541;28;20439;-79
2022/07/23 00:04:00;;;;;;;0.00;0.00;;;15.00;99.90;;;;;;5055306;28;20056;-79
2022/07/23 00:06:26;;;;;;;0.00;0.00;;;15.00;99.90;;;;;;5039094;28;20064;-79
2022/07/23 00:08:52;;;;;;;0.00;0.00;;;15.00;99.90;;;;;;5055692;28;20401;-79
2022/07/23 00:11:18;;;;;;;0.00;0.00;;;15.00;99.90;;;;;;5039106;28;20388;-79
2022/07/23 00:13:44;;;;;;;0.05;0.00;;;14.90;99.90;;;;;;5055281;28;20052;-79
2022/07/23 00:16:10;;;;;;;0.00;0.00;;;14.90;99.90;;;;;;5055549;28;20044;-79
2022/07/23 00:18:36;;;;;;;0.00;0.00;;;14.90;99.90;;;;;;5038965;28;20076;-80
2022/07/23 00:21:02;;;;;;;0.00;0.00;;;14.80;99.90;;;;;;5055460;28;20504;-80
2022/07/23 00:23:28;;;;;;;0.00;0.00;;;14.80;99.90;;;;;;5055490;28;20040;-80
2022/07/23 00:25:54;;;;;;;0.00;0.00;;;14.70;99.90;;;;;;5038965;28;20048;-80
2022/07/23 00:28:20;;;;;;;0.00;0.00;;;14.70;99.90;;;;;;5038768;28;20041;-80
2022/07/23 00:30:46;;;;;;;0.00;0.00;;;14.60;99.90;;;;;;5055396;28;20049;-80
2022/07/23 00:33:11;;;;;;;0.00;0.00;;;14.60;99.90;;;;;;5055224;28;20041;-79
2022/07/23 00:35:42;;;;;;;0.00;0.00;;;14.50;99.90;;;;;;5038339;28;20048;-79
2022/07/23 00:38:09;;;;;;;0.00;0.00;;;14.50;99.90;;;;;;5038906;28;20044;-79
2022/07/23 00:40:36;;;;;;;0.00;0.00;;;14.50;99.90;;;;;;5055009;28;20531;-80
2022/07/23 00:43:03;;;;;;;0.00;0.00;;;14.40;99.90;;;;;;5055144;28;20055;-79
2022/07/23 00:45:29;;;;;;;0.00;0.00;;;14.40;99.90;;;;;;5055091;28;20053;-79
2022/07/23 00:47:55;;;;;;;0.00;0.00;;;14.30;99.90;;;;;;5055085;28;20427;-79
2022/07/23 00:50:20;;;;;;;0.00;0.00;;;14.20;99.90;;;;;;5055038;28;20048;-79
2022/07/23 00:52:46;;;;;;;0.00;0.00;;;14.20;99.90;;;;;;5055137;28;20045;-79
2022/07/23 00:55:13;;;;;;;0.00;0.00;;;14.10;99.90;;;;;;5038226;28;20060;-79
2022/07/23 00:57:40;;;;;;;0.00;0.00;;;14.20;99.90;;;;;;5053658;28;20519;-79
2022/07/23 01:00:08;;;;;;;0.00;0.00;;;14.30;99.90;;;;;;5038551;28;20090;-79
2022/07/23 01:02:34;;;;;;;0.00;0.00;;;14.30;99.90;;;;;;5038142;28;20045;-79
2022/07/23 01:05:00;;;;;;;0.00;0.00;;;14.30;99.90;;;;;;5054703;28;20071;-79
2022/07/23 01:07:26;;;;;;;0.00;0.00;;;14.40;99.90;;;;;;5037999;28;20057;-79
2022/07/23 01:09:52;;;;;;;0.00;0.00;;;14.40;99.90;;;;;;5037767;28;20045;-79
2022/07/23 01:12:18;;;;;;;0.00;0.00;;;14.50;99.90;;;;;;5037722;28;20154;-79
2022/07/23 01:14:44;;;;;;;0.00;0.00;;;14.50;99.90;;;;;;5037885;28;20045;-79
2022/07/23 01:17:09;;;;;;;0.00;0.00;;;14.50;99.90;;;;;;5037631;28;20386;-79
2022/07/23 01:19:35;;;;;;;0.00;0.00;;;14.40;99.90;;;;;;5037766;28;20056;-79
2022/07/23 01:22:04;;;;;;;0.00;0.00;;;14.40;99.90;;;;;;5054280;28;20153;-79
2022/07/23 01:24:30;;;;;;;0.00;0.00;;;14.30;99.90;;;;;;5053816;28;20052;-79
2022/07/23 01:26:56;;;;;;;0.00;0.00;;;14.40;99.90;;;;;;5036224;28;20469;-79
2022/07/23 01:29:22;;;;;;;0.00;0.00;;;14.40;99.90;;;;;;5052447;28;20091;-79
2022/07/23 01:31:47;;;;;;;0.03;0.00;;;14.40;99.90;;;;;;5054572;28;20106;-79
2022/07/23 01:34:14;;;;;;;0.00;0.00;;;14.40;99.90;;;;;;5037473;28;20045;-79
2022/07/23 01:36:40;;;;;;;0.00;0.00;;;14.30;99.90;;;;;;5053918;28;20377;-79
2022/07/23 01:39:07;;;;;;;0.10;0.10;;;14.30;99.90;;;;;;5054008;28;20053;-79
2022/07/23 01:41:33;;;;;;;0.00;0.00;;;14.40;99.90;;;;;;5037776;28;20041;-79
2022/07/23 01:43:59;;;;;;;0.00;0.00;;;14.30;99.90;;;;;;5054105;28;20140;-79
2022/07/23 01:46:25;;;;;;;0.00;0.00;;;14.30;99.90;;;;;;5054286;28;20135;-79
2022/07/23 01:48:51;;;;;;;0.00;0.00;;;14.30;99.90;;;;;;5054089;28;20522;-79
2022/07/23 01:51:17;;;;;;;0.00;0.00;;;14.30;99.90;;;;;;5053866;28;20045;-79
2022/07/23 01:53:42;;;;;;;0.00;0.00;;;14.30;99.90;;;;;;5053741;28;20509;-79
2022/07/23 01:56:08;;;;;;;0.00;0.00;;;14.30;99.90;;;;;;5053781;28;20080;-79
2022/07/23 01:58:34;;;;;;;0.05;0.03;;;14.20;99.90;;;;;;5036912;28;20056;-79
2022/07/23 02:01:00;;;;;;;0.00;0.00;;;14.10;99.90;;;;;;5053831;28;20045;-79
2022/07/23 02:03:26;;;;;;;0.00;0.00;;;14.10;99.90;;;;;;5053697;28;20041;-79
2022/07/23 02:05:52;;;;;;;0.00;0.00;;;14.00;99.90;;;;;;5036961;28;20060;-79
2022/07/23 02:08:18;;;;;;;0.00;0.00;;;14.00;99.90;;;;;;5053359;28;20044;-79
2022/07/23 02:10:44;;;;;;;0.00;0.00;;;13.90;99.90;;;;;;5052672;28;20432;-79
2022/07/23 02:13:10;;;;;;;0.00;0.00;;;14.00;99.90;;;;;;5037378;28;20072;-79
2022/07/23 02:15:36;;;;;;;0.00;0.00;;;14.00;99.90;;;;;;5053429;28;20138;-80
2022/07/23 02:18:02;;;;;;;0.00;0.00;;;14.00;99.90;;;;;;5053375;28;20485;-79
2022/07/23 02:20:27;;;;;;;0.00;0.00;;;13.90;99.90;;;;;;5036478;28;20057;-79
2022/07/23 02:22:53;;;;;;;0.00;0.00;;;13.80;99.90;;;;;;5053241;28;20045;-79
2022/07/23 02:25:18;;;;;;;0.00;0.00;;;13.80;99.90;;;;;;5053553;28;20055;-79
2022/07/23 02:27:44;;;;;;;0.00;0.00;;;13.80;99.90;;;;;;5053256;28;20455;-79
2022/07/23 02:30:10;;;;;;;0.00;0.00;;;13.80;99.90;;;;;;5053213;28;20041;-79
2022/07/23 02:32:36;;;;;;;0.00;0.00;;;13.80;99.90;;;;;;5036505;28;20110;-79
2022/07/23 02:35:03;;;;;;;0.00;0.00;;;13.80;99.90;;;;;;5036719;28;20084;-79
2022/07/23 02:37:29;;;;;;;0.00;0.00;;;13.70;99.90;;;;;;5052769;28;20037;-79
2022/07/23 02:39:54;;;;;;;0.00;0.00;;;13.70;99.90;;;;;;5053059;28;20040;-79
2022/07/23 02:42:20;;;;;;;0.00;0.00;;;13.70;99.90;;;;;;5053476;28;20052;-79
2022/07/23 02:44:46;;;;;;;0.00;0.00;;;13.60;99.90;;;;;;5052634;28;20048;-79
2022/07/23 02:47:11;;;;;;;0.00;0.00;;;13.60;99.90;;;;;;5035948;28;20087;-79
2022/07/23 02:49:37;;;;;;;0.00;0.00;;;13.60;99.90;;;;;;5052732;28;20040;-79
2022/07/23 02:52:03;;;;;;;0.00;0.00;;;13.50;99.90;;;;;;5036367;28;20132;-79
2022/07/23 02:54:29;;;;;;;0.20;0.00;;;13.50;99.90;;;;;;5053055;28;20044;-79
2022/07/23 02:56:54;;;;;;;0.00;0.00;;;13.40;99.90;;;;;;5052690;28;20044;-79
2022/07/23 02:59:20;;;;;;;0.00;0.00;;;13.40;99.90;;;;;;5052902;28;20052;-79
2022/07/23 03:01:46;;;;;;;0.00;0.00;;;13.30;99.90;;;;;;5052505;28;20041;-79
2022/07/23 03:04:11;;;;;;;0.00;0.00;;;13.40;99.90;;;;;;5052711;28;20072;-79
2022/07/23 03:06:37;;;;;;;0.00;0.00;;;13.30;99.90;;;;;;5052632;28;20091;-79
2022/07/23 03:09:04;;;;;;;0.00;0.00;;;13.20;99.90;;;;;;5052408;28;20118;-79
2022/07/23 03:11:29;;;;;;;0.00;0.00;;;13.30;99.90;;;;;;5036401;28;20063;-79
2022/07/23 03:13:55;;;;;;;0.00;0.00;;;13.20;99.90;;;;;;5052500;28;20128;-79
2022/07/23 03:16:21;;;;;;;0.00;0.00;;;13.10;99.90;;;;;;5052600;28;20033;-79
2022/07/23 03:18:47;;;;;;;0.00;0.00;;;13.10;99.90;;;;;;5052603;28;20036;-79
2022/07/23 03:21:12;;;;;;;0.00;0.00;;;13.20;99.90;;;;;;5054192;28;20059;-79
2022/07/23 03:23:38;;;;;;;0.10;0.00;;;13.20;99.90;;;;;;5057308;28;20052;-79
2022/07/23 03:26:04;;;;;;;0.00;0.00;;;13.20;99.90;;;;;;5056720;28;20492;-79
2022/07/23 03:28:30;;;;;;;0.00;0.00;;;13.20;99.90;;;;;;5056757;28;20464;-79
2022/07/23 03:30:56;;;;;;;0.08;0.08;;;13.20;99.90;;;;;;5039693;28;20503;-79
2022/07/23 03:33:22;;;;;;;0.00;0.00;;;13.10;99.90;;;;;;5056431;28;20052;-79
2022/07/23 03:35:48;;;;;;;0.00;0.00;;;13.10;99.90;;;;;;5056379;28;20045;-79
2022/07/23 03:38:14;;;;;;;0.00;0.00;;;13.10;99.90;;;;;;5056295;28;20044;-79
2022/07/23 03:40:40;;;;;;;0.05;0.05;;;13.10;99.90;;;;;;5056394;28;20137;-79
2022/07/23 03:43:05;;;;;;;0.00;0.00;;;13.10;99.90;;;;;;5039204;28;20523;-79
2022/07/23 03:45:31;;;;;;;0.00;0.00;;;13.00;99.90;;;;;;5056388;28;20045;-79
2022/07/23 03:47:57;;;;;;;0.00;0.00;;;13.00;99.90;;;;;;5039395;28;20053;-79
2022/07/23 03:50:24;;;;;;;0.00;0.00;;;12.90;99.90;;;;;;5056154;28;20144;-79
2022/07/23 03:52:49;;;;;;;0.00;0.00;;;12.90;99.90;;;;;;5056808;28;20095;-79
2022/07/23 03:55:15;;;;;;;0.63;0.10;;;12.90;99.90;;;;;;5056114;28;20098;-79
2022/07/23 03:57:41;;;;;;;0.05;0.03;;;13.00;99.90;;;;;;5055678;28;20049;-79
2022/07/23 04:00:09;;;;;;;0.00;0.00;;;12.90;99.90;;;;;;5039232;28;20124;-79
2022/07/23 04:02:38;;;;;;;0.00;0.00;;;12.80;99.90;;;;;;5039244;28;20463;-79
2022/07/23 04:05:04;;;;;;;0.00;0.00;;;12.80;99.90;;;;;;5039259;28;20138;-79
2022/07/23 04:07:30;;;;;;;0.00;0.00;;;12.80;99.90;;;;;;5039848;28;20053;-79
2022/07/23 04:09:56;;;;;;;0.00;0.00;;;12.80;99.90;;;;;;5055826;28;20550;-80
2022/07/23 04:12:22;;;;;;;0.00;0.00;;;12.70;99.90;;;;;;5055532;28;20041;-79
2022/07/23 04:14:48;;;;;;;0.00;0.00;;;12.70;99.90;;;;;;5038549;28;20064;-79
2022/07/23 04:17:13;;;;;;;0.00;0.00;;;12.70;99.90;;;;;;5055300;28;20128;-79
2022/07/23 04:19:41;;;;;;;0.00;0.00;;;12.70;99.90;;;;;;5038588;28;20114;-79
2022/07/23 04:22:07;;;;;;;0.00;0.00;;;12.80;99.90;;;;;;5038887;28;20041;-79
2022/07/23 04:24:33;;;;;;;8.82;0.60;;;12.80;99.90;;;;;;5038906;28;20055;-79
2022/07/23 04:26:59;;;;;;;0.00;0.00;;;12.80;99.90;;;;;;5055496;28;20485;-79
2022/07/23 04:29:24;;;;;;;0.00;0.00;;;12.80;99.90;;;;;;5055388;28;20051;-79
2022/07/23 04:31:51;;;;;;;0.00;0.00;;;12.80;99.90;;;;;;5054144;28;20095;-79
2022/07/23 04:34:16;;;;;;;0.00;0.00;;;12.90;99.90;;;;;;5054667;28;20171;-79
2022/07/23 04:36:42;;;;;;;0.70;0.28;;;12.90;99.90;;;;;;5038646;28;20088;-79
2022/07/23 04:39:08;;;;;;;0.00;0.00;;;12.90;99.90;;;;;;5055424;28;20045;-79
2022/07/23 04:41:34;;;;;;;0.00;0.00;;;12.90;99.90;;;;;;5038641;28;20488;-79
2022/07/23 04:44:00;;;;;;;0.00;0.00;;;12.90;99.90;;;;;;5038593;28;20137;-79
2022/07/23 04:46:26;;;;;;;0.00;0.00;;;13.00;99.90;;;;;;5054749;28;20060;-79
2022/07/23 04:48:52;;;;;;;0.00;0.00;;;12.90;99.90;;;;;;5055041;28;20428;-79
2022/07/23 04:51:17;;;;;;;0.00;0.00;;;12.90;99.90;;;;;;5055589;28;20069;-79
2022/07/23 04:53:43;;;;;;;0.00;0.00;;;13.00;99.90;;;;;;5054910;28;20053;-79
2022/07/23 04:56:09;;;;;;;0.00;0.00;;;13.00;99.90;;;;;;5055029;28;20041;-79
2022/07/23 04:58:34;;;;;;;0.00;0.00;;;13.00;99.90;;;;;;5054574;28;20072;-79
2022/07/23 05:01:00;;;;;;;0.13;0.10;;;13.10;99.90;;;;;;5038000;28;20085;-79
2022/07/23 05:03:26;;;;;;;0.00;0.00;;;13.10;99.90;;;;;;5054821;28;20143;-79
2022/07/23 05:05:52;;;;;;;0.00;0.00;;;13.10;99.90;;;;;;5054853;28;20140;-79
2022/07/23 05:08:18;;;;;;;0.00;0.00;;;13.20;99.90;;;;;;5038058;28;20504;-80
2022/07/23 05:10:43;;;;;;;0.00;0.00;;;13.20;99.90;;;;;;5054063;28;20060;-80
2022/07/23 05:13:09;;;;;;;0.00;0.00;;;13.20;99.90;;;;;;5054592;28;20037;-80
2022/07/23 05:15:35;;;;;;;0.00;0.00;;;13.20;99.90;;;;;;5054254;28;20091;-79
2022/07/23 05:18:00;;;;;;;0.00;0.00;;;13.30;99.90;;;;;;5054462;28;20407;-80
2022/07/23 05:20:26;;;;;;;0.00;0.00;;;13.30;99.90;;;;;;5037580;28;20053;-79
2022/07/23 05:22:52;;;;;;;0.00;0.00;;;13.20;99.90;;;;;;5037825;28;20045;-79
2022/07/23 05:25:18;;;;;;;0.00;0.00;;;13.20;99.90;;;;;;5054463;28;20477;-79
2022/07/23 05:27:43;;;;;;;0.00;0.00;;;13.30;99.90;;;;;;5054028;28;20508;-79
2022/07/23 05:30:10;;;;;;;0.00;0.00;;;13.30;99.90;;;;;;5037619;28;20045;-80
2022/07/23 05:32:36;;;;;;;1.27;0.32;;;13.40;99.90;;;;;;5053920;28;20406;-80
2022/07/23 05:35:03;;;;;;;0.00;0.00;;;13.40;99.90;;;;;;5054439;28;20135;-79
2022/07/23 05:37:29;;;;;;;0.00;0.00;;;13.50;99.90;;;;;;5054267;28;20060;-80
2022/07/23 05:39:55;;;;;;;0.00;0.00;;;13.50;99.90;;;;;;5037434;28;20389;-80
2022/07/23 05:42:20;;;;;;;0.00;0.00;;;13.80;99.90;;;;;;5054031;28;20055;-79
2022/07/23 05:44:46;;;;;;;0.00;0.00;;;14.00;99.90;;;;;;5053767;28;20052;-79
2022/07/23 05:47:12;;;;;;;0.00;0.00;;;14.30;99.90;;;;;;5037345;28;20092;-79
2022/07/23 05:49:41;;;;;;;0.00;0.00;;;14.50;99.90;;;;;;5037229;28;20053;-79
2022/07/23 05:52:08;;;;;;;0.00;0.00;;;14.70;99.90;;;;;;5037602;28;20084;-79
2022/07/23 05:54:36;;;;;;;0.00;0.00;;;14.80;99.90;;;;;;5053902;28;20106;-79
2022/07/23 05:57:03;;;;;;;0.00;0.00;;;14.80;99.90;;;;;;5037066;28;20140;-79
2022/07/23 05:59:29;;;;;;;0.00;0.00;;;14.60;99.90;;;;;;5053670;28;20564;-79
2022/07/23 06:01:55;;;;;;;0.00;0.00;;;14.50;99.90;;;;;;5037463;28;20041;-79
2022/07/23 06:04:21;;;;;;;0.00;0.00;;;14.40;99.90;;;;;;5037493;28;20389;-79
2022/07/23 06:06:46;;;;;;;0.00;0.00;;;14.50;99.90;;;;;;5036927;28;20055;-79
2022/07/23 06:09:13;;;;;;;0.00;0.00;;;14.40;99.90;;;;;;5036936;28;20051;-79
2022/07/23 06:11:40;;;;;;;0.00;0.00;;;14.40;99.90;;;;;;5037025;28;20095;-79
2022/07/23 06:14:05;;;;;;;0.00;0.00;;;14.40;99.90;;;;;;5053251;28;20057;-80
2022/07/23 06:16:34;;;;;;;0.00;0.00;;;14.50;99.90;;;;;;5053325;28;20049;-79
2022/07/23 06:19:00;;;;;;;0.00;0.00;;;14.50;99.90;;;;;;5054092;28;20048;-79
2022/07/23 06:21:25;;;;;;;0.00;0.00;;;14.60;99.90;;;;;;5053163;28;20045;-79
2022/07/23 06:23:51;;;;;;;0.00;0.00;;;14.60;99.90;;;;;;5053321;28;20040;-79
2022/07/23 06:26:17;;;;;;;0.25;0.00;;;14.60;99.90;;;;;;5053156;28;20048;-79
2022/07/23 06:28:42;;;;;;;0.00;0.00;;;14.60;99.90;;;;;;5053143;28;20112;-79
2022/07/23 06:31:08;;;;;;;0.00;0.00;;;14.70;99.90;;;;;;5053128;28;20488;-80
2022/07/23 06:33:34;;;;;;;0.10;0.10;;;14.70;99.90;;;;;;5052444;28;20088;-79
2022/07/23 06:35:59;;;;;;;0.00;0.00;;;14.80;99.90;;;;;;5036205;28;20056;-79
2022/07/23 06:38:25;;;;;;;0.00;0.00;;;14.80;99.90;;;;;;5053357;28;20040;-80
2022/07/23 06:40:51;;;;;;;0.00;0.00;;;14.90;99.90;;;;;;5052857;28;20110;-80
2022/07/23 06:43:17;;;;;;;0.00;0.00;;;15.00;99.90;;;;;;5052941;28;20047;-80
2022/07/23 06:45:42;;;;;;;0.00;0.00;;;15.00;99.90;;;;;;5052941;28;20040;-80
2022/07/23 06:48:08;;;;;;;0.00;0.00;;;15.10;99.90;;;;;;5052955;28;20056;-80
2022/07/23 06:50:34;;;;;;;0.00;0.00;;;15.10;99.90;;;;;;5036122;28;20489;-79
2022/07/23 06:53:00;;;;;;;0.00;0.00;;;15.20;99.90;;;;;;5036545;28;20049;-79
2022/07/23 06:55:25;;;;;;;0.00;0.00;;;15.30;99.90;;;;;;5035650;28;20103;-80
2022/07/23 06:57:51;;;;;;;0.00;0.00;;;15.40;99.90;;;;;;5051875;28;20133;-80
2022/07/23 07:00:17;;;;;;;0.70;0.22;;;15.50;99.90;;;;;;5052669;28;20131;-80
2022/07/23 07:02:43;;;;;;;0.00;0.00;;;15.50;99.90;;;;;;5052381;28;20045;-80
2022/07/23 07:05:08;;;;;;;0.00;0.00;;;15.60;99.90;;;;;;5035688;28;20057;-80
2022/07/23 07:07:34;;;;;;;0.00;0.00;;;15.70;99.90;;;;;;5035688;28;20064;-80
2022/07/23 07:10:00;;;;;;;0.00;0.00;;;15.80;99.90;;;;;;5036056;28;20049;-80
2022/07/23 07:12:26;;;;;;;0.55;0.43;;;15.80;99.90;;;;;;5052660;28;20060;-80
2022/07/23 07:14:53;;;;;;;0.10;0.00;;;15.90;99.90;;;;;;5052601;28;20052;-80
2022/07/23 07:17:18;;;;;;;0.10;0.00;;;16.10;99.90;;;;;;5052564;28;20056;-80
2022/07/23 07:19:44;;;;;;;0.00;0.00;;;16.20;99.90;;;;;;5052445;28;20041;-80
2022/07/23 07:22:10;;;;;;;0.00;0.00;;;16.30;99.90;;;;;;5051823;28;20136;-80
2022/07/23 07:24:35;;;;;;;0.00;0.00;;;16.40;99.90;;;;;;5035935;28;20049;-80
2022/07/23 07:27:01;;;;;;;0.00;0.00;;;16.50;99.90;;;;;;5035721;28;20374;-80
2022/07/23 07:29:28;;;;;;;0.00;0.00;;;16.60;99.90;;;;;;5052463;28;20564;-80
2022/07/23 07:31:54;;;;;;;0.00;0.00;;;16.70;99.90;;;;;;5052630;28;20408;-80
2022/07/23 07:34:20;;;;;;;0.03;0.00;;;16.90;99.90;;;;;;5035718;28;20060;-80
2022/07/23 07:36:45;;;;;;;0.00;0.00;;;16.90;99.90;;;;;;5052200;28;20049;-79
2022/07/23 07:39:11;;;;;;;0.00;0.00;;;17.00;99.90;;;;;;5035781;28;20041;-79
2022/07/23 07:41:37;;;;;;;0.00;0.00;;;17.10;99.90;;;;;;5035273;28;20053;-80
2022/07/23 07:44:03;;;;;;;0.00;0.00;;;17.20;99.90;;;;;;5035563;28;20047;-79
2022/07/23 07:46:28;;;;;;;0.20;0.20;;;17.40;99.90;;;;;;5052807;28;20041;-80
2022/07/23 07:48:54;;;;;;;0.00;0.00;;;17.40;99.90;;;;;;5052168;28;20049;-80
2022/07/23 07:51:20;;;;;;;0.00;0.00;;;17.60;99.90;;;;;;5052265;28;20512;-80
2022/07/23 07:53:45;;;;;;;0.00;0.00;;;17.70;99.90;;;;;;5035603;28;20048;-80
2022/07/23 07:56:11;;;;;;;0.00;0.00;;;17.80;99.90;;;;;;5052143;28;20099;-80
2022/07/23 07:58:37;;;;;;;0.00;0.00;;;17.90;99.90;;;;;;5051820;28;20118;-80
2022/07/23 08:01:03;;;;;;;0.30;0.20;;;18.00;99.90;;;;;;5051927;28;20045;-80
2022/07/23 08:03:29;;;;;;;0.00;0.00;;;18.10;99.90;;;;;;5052009;28;20063;-80
2022/07/23 08:05:55;;;;;;;0.00;0.00;;;18.20;99.90;;;;;;5052107;28;20052;-80
2022/07/23 08:08:20;;;;;;;0.00;0.00;;;18.20;99.90;;;;;;5055531;28;20041;-80
2022/07/23 08:10:46;;;;;;;0.00;0.00;;;18.10;99.90;;;;;;5055798;28;20041;-80
2022/07/23 08:13:14;;;;;;;0.00;0.00;;;18.20;99.90;;;;;;5039124;28;20380;-80
2022/07/23 08:15:41;;;;;;;0.10;0.10;;;18.30;99.90;;;;;;5038842;28;20044;-80
2022/07/23 08:18:06;;;;;;;0.00;0.00;;;18.40;99.90;;;;;;5038702;28;20095;-80
2022/07/23 08:20:32;;;;;;;0.00;0.00;;;18.60;99.90;;;;;;5055518;28;20500;-80
2022/07/23 08:23:02;;;;;;;0.35;0.10;;;18.70;99.90;;;;;;5055677;28;20369;-80
2022/07/23 08:25:30;;;;;;;0.00;0.00;;;18.70;99.90;;;;;;5039322;28;20194;-80
2022/07/23 08:27:58;;;;;;;0.00;0.00;;;18.80;99.90;;;;;;5055464;28;20094;-80
2022/07/23 08:30:24;;;;;;;0.00;0.00;;;18.90;99.90;;;;;;5038786;28;20558;-80
2022/07/23 08:33:10;;;;;;;0.00;0.00;;;19.20;99.90;;;;;;5055360;28;20358;-80
2022/07/23 08:35:57;;;;;;;0.00;0.00;;;19.40;99.90;;;;;;5038711;28;20049;-80
2022/07/23 08:38:23;;;;;;;0.00;0.00;;;19.40;99.90;;;;;;5054983;28;20053;-80
2022/07/23 08:40:51;;;;;;;0.00;0.00;;;19.20;99.90;;;;;;5038675;28;20044;-79
2022/07/23 08:43:25;;;;;;;0.00;0.00;;;19.00;99.90;;;;;;5038594;28;20045;-80
2022/07/23 08:45:56;;;;;;;0.00;0.00;;;19.00;99.90;;;;;;5038512;28;20041;-80
2022/07/23 08:48:24;;;;;;;0.00;0.00;;;19.10;99.90;;;;;;5038360;28;20045;-80
2022/07/23 08:50:55;;;;;;;0.00;0.00;;;19.00;99.90;;;;;;5038475;28;20076;-80
2022/07/23 08:53:23;;;;;;;0.00;0.00;;;19.10;99.90;;;;;;5053732;28;20481;-80
2022/07/23 08:55:52;;;;;;;0.00;0.00;;;19.20;99.90;;;;;;5038042;28;20069;-80
2022/07/23 08:58:18;;;;;;;0.00;0.00;;;19.40;99.90;;;;;;5037885;28;20063;-80
2022/07/23 09:00:45;;;;;;;0.00;0.00;;;19.50;99.90;;;;;;5038126;28;20050;-80
2022/07/23 09:03:19;;;;;;;0.00;0.00;;;19.70;99.90;;;;;;5054946;28;20045;-80
2022/07/23 09:05:46;;;;;;;0.00;0.00;;;19.90;99.90;;;;;;5054640;28;20441;-80
2022/07/23 09:08:15;;;;;;;0.00;0.00;;;19.90;99.90;;;;;;5054439;28;20497;-80
2022/07/23 09:11:01;;;;;;;0.00;0.00;;;19.80;99.90;;;;;;5054662;28;20512;-80
2022/07/23 09:13:47;;;;;;;0.35;0.10;;;19.90;99.90;;;;;;5055197;28;20063;-80
2022/07/23 09:16:18;;;;;;;0.00;0.00;;;19.90;99.90;;;;;;5054813;28;20102;-80
2022/07/23 09:18:47;;;;;;;0.00;0.00;;;20.00;99.90;;;;;;5054084;28;20124;-80
2022/07/23 09:21:25;;;;;;;0.00;0.00;;;20.00;99.90;;;;;;5054277;28;20055;-80
2022/07/23 09:24:08;;;;;;;0.00;0.00;;;19.90;99.90;;;;;;5037892;28;20080;-80
2022/07/23 09:26:37;;;;;;;0.00;0.00;;;19.80;99.90;;;;;;5037981;28;20061;-79
2022/07/23 09:29:15;;;;;;;1.13;0.43;;;19.80;99.90;;;;;;5037406;28;20053;-80
2022/07/23 09:31:51;;;;;;;0.00;0.00;;;19.80;99.90;;;;;;5037426;28;20431;-80
2022/07/23 09:34:18;;;;;;;0.00;0.00;;;19.80;99.90;;;;;;5054439;28;20103;-80
2022/07/23 09:36:45;;;;;;;0.00;0.00;;;19.90;99.90;;;;;;5054237;28;20095;-80
2022/07/23 09:39:12;;;;;;;0.00;0.00;;;20.00;99.90;;;;;;5053914;28;20051;-79
2022/07/23 09:41:43;;;;;;;0.00;0.00;;;20.10;99.90;;;;;;5053739;28;20051;-80
2022/07/23 09:44:13;;;;;;;0.10;0.10;;;20.30;99.90;;;;;;5053038;28;20048;-80
2022/07/23 09:46:40;;;;;;;0.00;0.00;;;20.50;99.90;;;;;;5053520;28;20451;-80
2022/07/23 09:49:20;;;;;;;0.00;0.00;;;20.50;99.90;;;;;;5052922;28;20045;-80
2022/07/23 09:51:51;;;;;;;0.00;0.00;;;20.60;99.90;;;;;;5037244;28;20044;-80
2022/07/23 09:54:38;;;;;;;0.00;0.00;;;20.50;99.90;;;;;;5054140;28;20443;-80
2022/07/23 09:57:12;;;;;;;0.00;0.00;;;20.40;99.90;;;;;;5053399;28;20057;-80
2022/07/23 09:59:39;;;;;;;0.00;0.00;;;20.30;99.90;;;;;;5053795;28;20049;-80
2022/07/23 10:02:07;;;;;;;0.00;0.00;;;20.50;99.90;;;;;;5053441;28;20049;-79
2022/07/23 10:04:34;;;;;;;0.00;0.00;;;20.80;99.90;;;;;;5036949;28;20057;-80
2022/07/23 10:07:02;;;;;;;0.00;0.00;;;20.90;99.90;;;;;;5053627;28;20119;-80
2022/07/23 10:09:31;;;;;;;0.00;0.00;;;20.90;99.90;;;;;;5036912;28;20087;-78
2022/07/23 10:14:39;;;;;;;0.00;0.00;;;20.70;99.90;;;;;;5053931;28;20378;-78
2022/07/23 10:17:05;;;;;;;0.00;0.00;;;20.50;99.90;;;;;;5036740;28;20448;-78
2022/07/23 10:19:32;;;;;;;0.00;0.00;;;20.40;99.90;;;;;;5053326;28;20037;-78
2022/07/23 10:22:04;;;;;;;0.00;0.00;;;20.30;99.90;;;;;;5053002;28;20057;-78
2022/07/23 10:24:57;;;;;;;0.05;0.03;;;20.40;99.90;;;;;;5053488;28;20052;-78
2022/07/23 10:27:44;;;;;;;0.00;0.00;;;20.60;99.90;;;;;;5037011;28;20049;-77
2022/07/23 10:30:13;;;;;;;0.00;0.00;;;20.80;99.90;;;;;;5052452;28;20045;-79
2022/07/23 10:33:22;;;;;;;0.00;0.00;;;21.00;99.90;;;;;;5053032;28;20037;-79
2022/07/23 10:35:47;;;;;;;0.00;0.00;;;21.40;99.90;;;;;;5037094;28;20103;-79
2022/07/23 10:38:20;;;;;;;0.00;0.00;;;21.60;99.90;;;;;;5036457;28;20057;-79
2022/07/23 10:41:04;;;;;;;0.00;0.00;;;21.60;98.80;;;;;;5052722;28;20128;-78
2022/07/23 10:43:33;;;;;;;0.00;0.00;;;21.90;99.90;;;;;;5054721;28;20147;-78
2022/07/23 10:46:28;;;;;;;0.00;0.00;;;22.10;99.80;;;;;;5053093;28;20476;-79
2022/07/23 10:49:22;;;;;;;0.00;0.00;;;22.20;97.50;;;;;;5052922;28;20052;-78
2022/07/23 10:52:15;;;;;;;0.00;0.00;;;22.10;97.50;;;;;;5052859;28;20053;-78
2022/07/23 10:54:50;;;;;;;0.00;0.00;;;22.10;98.70;;;;;;5052753;28;20041;-78
2022/07/23 10:57:17;;;;;;;0.00;0.00;;;21.90;98.20;;;;;;5051992;28;20056;-78
2022/07/23 11:00:14;;;;;;;0.00;0.00;;;21.90;99.70;;;;;;5052995;28;20045;-78
2022/07/23 11:02:43;;;;;;;0.00;0.00;;;21.60;97.60;;;;;;5036395;28;20060;-79
2022/07/23 11:05:11;;;;;;;0.00;0.00;;;21.80;99.90;;;;;;5052308;28;20088;-78
2022/07/23 11:07:59;;;;;;;0.00;0.00;;;21.80;99.90;;;;;;5036124;28;20049;-79
2022/07/23 11:10:45;;;;;;;0.00;0.00;;;22.10;99.90;;;;;;5052427;28;20126;-78
2022/07/23 11:13:30;;;;;;;0.00;0.00;;;22.20;99.30;;;;;;5036124;28;20140;-79
2022/07/23 11:16:02;;;;;;;0.00;0.00;;;22.50;96.80;;;;;;5052628;28;20063;-79
2022/07/23 11:18:43;;;;;;;0.00;0.00;;;22.70;97.80;;;;;;5052982;28;20110;-79
2022/07/23 11:21:26;;;;;;;0.00;0.00;;;22.80;97.70;;;;;;5035692;28;20051;-79
2022/07/23 11:24:06;;;;;;;0.00;0.00;;;22.90;99.60;;;;;;5052644;28;20048;-79
2022/07/23 11:26:43;;;;;;;0.00;0.00;;;23.00;98.70;;;;;;5035720;28;20057;-79
2022/07/23 11:29:27;;;;;;;0.00;0.00;;;23.00;97.90;;;;;;5053090;28;20041;-79
2022/07/23 11:32:05;;;;;;;0.00;0.00;;;23.00;98.00;;;;;;5036140;28;20059;-79
2022/07/23 11:34:32;;;;;;;0.00;0.00;;;23.10;95.00;;;;;;5052483;28;20045;-79
2022/07/23 11:36:58;;;;;;;0.00;0.00;;;22.80;96.30;;;;;;5035229;28;20405;-79
2022/07/23 11:39:27;;;;;;;0.00;0.00;;;22.70;97.50;;;;;;5052282;28;20041;-79
2022/07/23 11:41:53;;;;;;;0.00;0.00;;;22.90;99.40;;;;;;5036517;28;20043;-79
2022/07/23 11:44:37;;;;;;;0.00;0.00;;;23.30;96.10;;;;;;5039661;28;20080;-78
2022/07/23 11:47:05;;;;;;;0.00;0.00;;;23.50;98.20;;;;;;5039691;28;20135;-78
2022/07/23 11:49:32;;;;;;;0.00;0.00;;;23.70;96.10;;;;;;5056130;28;20045;-79
2022/07/23 11:52:14;;;;;;;0.00;0.00;;;23.80;96.00;;;;;;5056138;28;20099;-79
2022/07/23 11:54:58;;;;;;;0.13;0.13;;;24.00;98.70;;;;;;5056038;28;20473;-79
2022/07/23 11:57:26;;;;;;;0.63;0.22;;;23.80;95.80;;;;;;5039328;28;20065;-79
2022/07/23 11:59:58;;;;;;;0.00;0.00;;;23.70;95.60;;;;;;5055984;28;20057;-79
2022/07/23 12:02:24;;;;;;;0.00;0.00;;;23.70;96.60;;;;;;5039169;28;20069;-79
2022/07/23 12:04:52;;;;;;;0.00;0.00;;;23.60;94.10;;;;;;5055866;28;20045;-79
2022/07/23 12:07:32;;;;;;;0.00;0.00;;;23.50;93.90;;;;;;5055890;28;20141;-79
2022/07/23 12:10:08;;;;;;;0.00;0.00;;;23.60;97.30;;;;;;5055820;28;20041;-79
2022/07/23 12:12:39;;;;;;;0.03;0.03;;;23.60;96.40;;;;;;5056261;28;20040;-79
2022/07/23 12:15:06;;;;;;;0.10;0.00;;;23.70;95.80;;;;;;5055362;28;20041;-79
2022/07/23 12:17:35;;;;;;;0.00;0.00;;;23.90;94.00;;;;;;5056410;28;20206;-79
2022/07/23 12:20:04;;;;;;;0.00;0.00;;;24.10;93.50;;;;;;5055556;28;20045;-79
2022/07/23 12:22:42;;;;;;;0.00;0.00;;;24.20;93.40;;;;;;5055551;28;20127;-80
2022/07/23 12:25:14;;;;;;;0.00;0.00;;;24.40;93.50;;;;;;5056063;28;20099;-80
2022/07/23 12:27:41;;;;;;;0.00;0.00;;;24.70;95.20;;;;;;5039120;28;20045;-80
2022/07/23 12:30:21;;;;;;;0.00;0.00;;;24.70;88.40;;;;;;5038716;28;20546;-80
2022/07/23 12:32:49;;;;;;;0.00;0.00;;;24.30;90.90;;;;;;5055610;28;20435;-80
2022/07/23 12:35:15;;;;;;;0.00;0.00;;;24.30;92.50;;;;;;5038640;28;20051;-80
2022/07/23 12:37:44;;;;;;;0.00;0.00;;;24.40;92.00;;;;;;5055310;28;20091;-80
2022/07/23 12:40:23;;;;;;;0.00;0.00;;;24.40;91.80;;;;;;5038426;28;20064;-81
2022/07/23 12:42:52;;;;;;;0.00;0.00;;;24.60;93.20;;;;;;5054972;28;20041;-81
2022/07/23 12:45:18;;;;;;;0.10;0.03;;;24.70;93.70;;;;;;5054895;28;20084;-81
2022/07/23 12:48:06;;;;;;;0.00;0.00;;;24.80;93.80;;;;;;5055345;28;20099;-80
2022/07/23 12:50:47;;;;;;;0.00;0.00;;;24.90;91.40;;;;;;5054576;28;20049;-80
2022/07/23 12:53:25;;;;;;;0.00;0.00;;;24.80;91.10;;;;;;5054030;28;20214;-81
2022/07/23 12:56:01;;;;;;;0.00;0.00;;;25.00;92.80;;;;;;5038119;28;20064;-80
2022/07/23 12:58:41;;;;;;;0.00;0.00;;;25.10;94.00;;;;;;5037818;28;20053;-80